Indian Springs, NV (89070)

10:06 AM PDT on August 30, 2014 (GMT -0700)
Indian Springs Air Force Auxiliary | Change Station
CLOSE
Current Station
Airport
Location: Indian Springs,
Elevation: 3133 ft
Nearby Weather Stations

Elev 3133 ft 36.59 °N, 115.67 °W | Updated 8 minutes ago

Partly Cloudy
Partly Cloudy
86 °F
Feels Like 86 °F
N
1
Wind Variable Wind from West

Today
High -- | Low -- °F
--% Chance of Precip.
Yesterday
High -- | Low -- °F
Precip. -- in
6:12 AM 7:13 PM
Waxing Crescent, 23% visible
Pressure 29.78 in
Visibility 10.0 miles
Clouds Few 20000 ft
Dew Point 28 °F
Humidity 12%
Rainfall 0.00 in
Snow Depth Not available.
UV 6 out of 12
Pollen 7.90 out of 12
Ozone Good
PM2.5 Good
Flu Activity Not available.
METAR KINS 301658Z AUTO 28001KT 10SM FEW200 30/M02 A2994 RMK AO2 SLP085 T02981022 VISNO RWY08 $

More Conditions Fewer Conditions

Pressure 29.78 in
Visibility 10.0 miles
Clouds Few 20000 ft
Dew Point 28 °F
Humidity 12%
Rainfall 0.00 in
Snow Depth Not available.
UV 6 out of 12
Pollen 7.90 out of 12
Ozone Good
PM2.5 Good
Flu Activity Not available.
METAR KINS 301658Z AUTO 28001KT 10SM FEW200 30/M02 A2994 RMK AO2 SLP085 T02981022 VISNO RWY08 $

More Conditions Fewer Conditions

10-Day Weather Forecast

Almanac

Astronomy

Aug. 30, 2014 Rise Set
Actual Time 6:12 AM PDT 7:13 PM PDT
Civil Twilight 5:45 AM PDT 7:39 PM PDT
Nautical Twilight 5:14 AM PDT 8:11 PM PDT
Astronomical Twilight 4:41 AM PDT 8:43 PM PDT
Moon 10:55 AM PDT 9:59 PM PDT
Length of Visible Light 13h 54m
Length of Day
13h 01m
Tomorrow will be 2m 13s shorter.
Waxing Crescent, 23% of the Moon is Illuminated
Today
Waxing Crescent
Sep 2
First Quarter
Sep 8
Full
Sep 15
Last Quarter
Sep 24
New

Today's Extremes

State Highs State Lows

Community

WunderPhotos

Upload Photos

1,748,566 photos uploaded!

WunderBlogs® & News

Nearby

Air Quality

  Air Quality AQ Index Pollutant
Yesterday Moderate
OZONE
Yesterday Good
PM10
Current Good
PM2.5
Current Good
OZONE
Saturday Moderate
OZONE
Saturday Good
PM10
Sunday Moderate
OZONE
Sunday Good
PM10
Monday Moderate
OZONE
Monday Good
PM10
Tuesday Moderate
OZONE
Tuesday Good
PM10
Wednesday Moderate
OZONE
Wednesday Good
PM10

Snow Depth

Station Depth Elevation
Big Creek Summit 1 in 8700 ft
Diamond Peak 1 in 8000 ft
Corral Canyon 0 in 8500 ft
Green Mountain 0 in 8000 ft
Lewis Peak 0 in 7400 ft

Earthquake Activity

City Distance Mag. Time & Date
No recent earthquake activity has been reported nearby.
Minimum magnitude displayed is 2.5.

Coastal Water Temperatures

Place Temperature
No Stations Reporting

Nearby Weather Stations